Time;durP1;ratioP1;P1;durP2;ratioP2;P2;SDS_P1;SDS_P2;PMS_P1;PMS_P2;Temp;Humidity;BMP_temperature;BMP_pressure;BME280_temperature;BME280_humidity;BME280_pressure;Samples;Min_cycle;Max_cycle;Signal;HPM_P1;HPM_P2
2022/04/06 00:02:16;;;;;;;;;;;;;;;;;;5091718;28;20311;-75
2022/04/06 00:04:43;;;;;;;;;;;;;;;;;;5092450;28;20339;-75
2022/04/06 00:07:10;;;;;;;;;;;;;;;;;;5092362;28;20337;-74
2022/04/06 00:09:39;;;;;;;;;;;;;;;;;;5090957;28;20349;-74
2022/04/06 00:12:06;;;;;;;;;;;;;;;;;;5096495;28;19947;-75
2022/04/06 00:14:33;;;;;;;;;;;;;;;;;;5090586;28;19970;-74
2022/04/06 00:17:04;;;;;;;;;;;;;;;;;;5090070;28;20015;-74
2022/04/06 00:19:32;;;;;;;;;;;;;;;;;;5094550;28;19924;-75
2022/04/06 00:21:58;;;;;;;;;;;;;;;;;;5091562;28;19971;-74
2022/04/06 00:24:25;;;;;;;;;;;;;;;;;;5090179;28;20297;-75
2022/04/06 00:26:52;;;;;;;;;;;;;;;;;;5090837;28;20399;-74
2022/04/06 00:29:19;;;;;;;;;;;;;;;;;;5092773;28;19927;-76
2022/04/06 00:31:46;;;;;;;;;;;;;;;;;;5096218;28;20575;-75
2022/04/06 00:34:13;;;;;;;;;;;;;;;;;;5101358;28;20015;-76
2022/04/06 00:36:40;;;;;;;;;;;;;;;;;;5098994;28;20019;-74
2022/04/06 00:39:07;;;;;;;;;;;;;;;;;;5090956;28;19930;-75
2022/04/06 00:41:34;;;;;;;;;;;;;;;;;;5089098;28;20301;-75
2022/04/06 00:44:01;;;;;;;;;;;;;;;;;;5090740;28;20010;-74
2022/04/06 00:46:28;;;;;;;;;;;;;;;;;;5089356;28;20302;-75
2022/04/06 00:48:55;;;;;;;;;;;;;;;;;;5092102;28;20397;-75
2022/04/06 00:51:22;;;;;;;;;;;;;;;;;;5093024;28;19931;-74
2022/04/06 00:53:49;;;;;;;;;;;;;;;;;;5092968;28;20293;-74
2022/04/06 00:56:16;;;;;;;;;;;;;;;;;;5085229;28;20404;-74
2022/04/06 00:58:43;;;;;;;;;;;;;;;;;;5101825;28;20415;-73
2022/04/06 01:01:09;;;;;;;;;;;;;;;;;;5093841;28;19928;-74
2022/04/06 01:03:36;;;;;;;;;;;;;;;;;;5091977;28;19939;-74
2022/04/06 01:06:03;;;;;;;;;;;;;;;;;;5095095;28;19924;-74
2022/04/06 01:08:30;;;;;;;;;;;;;;;;;;5092444;28;19924;-75
2022/04/06 01:10:57;;;;;;;;;;;;;;;;;;5087012;28;20011;-74
2022/04/06 01:13:24;;;;;;;;;;;;;;;;;;5098817;28;20317;-76
2022/04/06 01:15:51;;;;;;;;;;;;;;;;;;5092491;28;19924;-75
2022/04/06 01:18:18;;;;;;;;;;;;;;;;;;5095448;28;19930;-74
2022/04/06 01:20:45;;;;;;;;;;;;;;;;;;5091476;28;19978;-75
2022/04/06 01:23:12;;;;;;;;;;;;;;;;;;5090454;28;19924;-74
2022/04/06 01:25:39;;;;;;;;;;;;;;;;;;5087852;28;19932;-74
2022/04/06 01:28:06;;;;;;;;;;;;;;;;;;5092489;28;19929;-75
2022/04/06 01:30:33;;;;;;;;;;;;;;;;;;5092743;28;19931;-75
2022/04/06 01:33:00;;;;;;;;;;;;;;;;;;5090080;28;19924;-75
2022/04/06 01:35:27;;;;;;;;;;;;;;;;;;5094508;28;19930;-75
2022/04/06 01:37:54;;;;;;;;;;;;;;;;;;5090293;28;20010;-75
2022/04/06 01:40:21;;;;;;;;;;;;;;;;;;5090604;28;19924;-74
2022/04/06 01:42:48;;;;;;;;;;;;;;;;;;5094772;28;20263;-75
2022/04/06 01:45:15;;;;;;;;;;;;;;;;;;5105069;28;20393;-76
2022/04/06 01:47:42;;;;;;;;;;;;;;;;;;5093194;28;20379;-76
2022/04/06 01:52:53;;;;;;;;;;;;;;;;;;5088581;28;20006;-75
2022/04/06 01:55:20;;;;;;;;;;;;;;;;;;5103905;28;19932;-74
2022/04/06 01:57:47;;;;;;;;;;;;;;;;;;5095227;28;19930;-75
2022/04/06 02:00:15;;;;;;;;;;;;;;;;;;5091600;28;20051;-75
2022/04/06 02:02:42;;;;;;;;;;;;;;;;;;5093608;28;19924;-76
2022/04/06 02:05:12;;;;;;;;;;;;;;;;;;5093208;28;20390;-75
2022/04/06 02:07:38;;;;;;;;;;;;;;;;;;5102619;28;19924;-75
2022/04/06 02:10:06;;;;;;;;;;;;;;;;;;5086441;28;19986;-76
2022/04/06 02:12:33;;;;;;;;;;;;;;;;;;5091340;28;20414;-75
2022/04/06 02:15:00;;;;;;;;;;;;;;;;;;5088216;28;20321;-75
2022/04/06 02:17:27;;;;;;;;;;;;;;;;;;5089846;28;19924;-75
2022/04/06 02:19:54;;;;;;;;;;;;;;;;;;5088233;28;19936;-75
2022/04/06 02:22:20;;;;;;;;;;;;;;;;;;5088815;28;19924;-75
2022/04/06 02:24:47;;;;;;;;;;;;;;;;;;5089627;28;20002;-75
2022/04/06 02:27:14;;;;;;;;;;;;;;;;;;5093780;28;19932;-75
2022/04/06 02:29:41;;;;;;;;;;;;;;;;;;5086504;28;19931;-75
2022/04/06 02:32:08;;;;;;;;;;;;;;;;;;5090655;28;19924;-75
2022/04/06 02:34:35;;;;;;;;;;;;;;;;;;5088681;28;19932;-75
2022/04/06 02:37:02;;;;;;;;;;;;;;;;;;5094937;28;19973;-75
2022/04/06 02:39:29;;;;;;;;;;;;;;;;;;5091267;28;19924;-75
2022/04/06 02:41:56;;;;;;;;;;;;;;;;;;5088190;28;19923;-75
2022/04/06 02:44:23;;;;;;;;;;;;;;;;;;5085886;28;19942;-75
2022/04/06 02:46:50;;;;;;;;;;;;;;;;;;5089553;28;19932;-76
2022/04/06 02:49:17;;;;;;;;;;;;;;;;;;5091692;28;19924;-81
2022/04/06 02:51:44;;;;;;;;;;;;;;;;;;5094502;28;19956;-75
2022/04/06 02:54:11;;;;;;;;;;;;;;;;;;5097005;28;20007;-80
2022/04/06 02:56:38;;;;;;;;;;;;;;;;;;5094986;28;19932;-75
2022/04/06 02:59:05;;;;;;;;;;;;;;;;;;5087863;28;19924;-74
2022/04/06 03:01:32;;;;;;;;;;;;;;;;;;5092499;28;19924;-74
2022/04/06 03:03:59;;;;;;;;;;;;;;;;;;5091059;28;19942;-75
2022/04/06 03:06:26;;;;;;;;;;;;;;;;;;5095033;28;19924;-74
2022/04/06 03:08:53;;;;;;;;;;;;;;;;;;5094359;28;19969;-74
2022/04/06 03:11:22;;;;;;;;;;;;;;;;;;5099035;28;19924;-75
2022/04/06 03:13:50;;;;;;;;;;;;;;;;;;5098034;28;19928;-75
2022/04/06 03:16:17;;;;;;;;;;;;;;;;;;5094020;28;20030;-74
2022/04/06 03:18:44;;;;;;;;;;;;;;;;;;5093022;28;19924;-75
2022/04/06 03:21:11;;;;;;;;;;;;;;;;;;5104108;28;19932;-75
2022/04/06 03:23:38;;;;;;;;;;;;;;;;;;5091426;28;20023;-74
2022/04/06 03:26:05;;;;;;;;;;;;;;;;;;5094223;28;19924;-75
2022/04/06 03:28:32;;;;;;;;;;;;;;;;;;5100835;28;20019;-75
2022/04/06 03:30:59;;;;;;;;;;;;;;;;;;5091823;28;19931;-75
2022/04/06 03:33:26;;;;;;;;;;;;;;;;;;5099982;28;19934;-76
2022/04/06 03:35:53;;;;;;;;;;;;;;;;;;5093306;28;19926;-75
2022/04/06 03:38:20;;;;;;;;;;;;;;;;;;5083415;28;19971;-74
2022/04/06 03:40:47;;;;;;;;;;;;;;;;;;5091898;28;19931;-74
2022/04/06 03:43:14;;;;;;;;;;;;;;;;;;5092212;28;20109;-75
2022/04/06 03:45:41;;;;;;;;;;;;;;;;;;5093171;28;20024;-74
2022/04/06 03:48:09;;;;;;;;;;;;;;;;;;5092652;28;19932;-74
2022/04/06 03:50:36;;;;;;;;;;;;;;;;;;5092439;28;19963;-74
2022/04/06 03:53:02;;;;;;;;;;;;;;;;;;5092584;28;20036;-74
2022/04/06 03:55:29;;;;;;;;;;;;;;;;;;5092512;28;20026;-75
2022/04/06 03:57:56;;;;;;;;;;;;;;;;;;5097247;28;20026;-74
2022/04/06 04:00:23;;;;;;;;;;;;;;;;;;5092196;28;19938;-74
2022/04/06 04:02:50;;;;;;;;;;;;;;;;;;5097451;28;19930;-76
2022/04/06 04:05:18;;;;;;;;;;;;;;;;;;5092885;28;19963;-75
2022/04/06 04:07:45;;;;;;;;;;;;;;;;;;5092331;28;19928;-74
2022/04/06 04:10:12;;;;;;;;;;;;;;;;;;5095782;28;20279;-72
2022/04/06 04:12:39;;;;;;;;;;;;;;;;;;5090839;28;20362;-72
2022/04/06 04:15:06;;;;;;;;;;;;;;;;;;5088177;28;19939;-72
2022/04/06 04:17:33;;;;;;;;;;;;;;;;;;5089996;28;21185;-72
2022/04/06 04:20:00;;;;;;;;;;;;;;;;;;5090339;28;20006;-72
2022/04/06 04:22:27;;;;;;;;;;;;;;;;;;5098520;28;20309;-74
2022/04/06 04:24:54;;;;;;;;;;;;;;;;;;5092478;28;19924;-74
2022/04/06 04:27:22;;;;;;;;;;;;;;;;;;5094191;28;19934;-74
2022/04/06 04:29:49;;;;;;;;;;;;;;;;;;5094116;28;19931;-76
2022/04/06 04:32:16;;;;;;;;;;;;;;;;;;5088227;28;20012;-74
2022/04/06 04:34:43;;;;;;;;;;;;;;;;;;5091233;28;19924;-74
2022/04/06 04:37:10;;;;;;;;;;;;;;;;;;5092487;28;20023;-73
2022/04/06 04:39:37;;;;;;;;;;;;;;;;;;5092564;28;19932;-73
2022/04/06 04:42:04;;;;;;;;;;;;;;;;;;5094387;28;19928;-73
2022/04/06 04:44:31;;;;;;;;;;;;;;;;;;5089062;28;19924;-72
2022/04/06 04:46:58;;;;;;;;;;;;;;;;;;5092966;28;19932;-73
2022/04/06 04:49:26;;;;;;;;;;;;;;;;;;5090761;28;19946;-73
2022/04/06 04:51:52;;;;;;;;;;;;;;;;;;5092575;28;19984;-72
2022/04/06 04:54:23;;;;;;;;;;;;;;;;;;5090711;28;19931;-74
2022/04/06 04:56:50;;;;;;;;;;;;;;;;;;5091824;28;20356;-74
2022/04/06 04:59:17;;;;;;;;;;;;;;;;;;5090479;28;19951;-74
2022/04/06 05:01:44;;;;;;;;;;;;;;;;;;5091686;28;20289;-74
2022/04/06 05:04:11;;;;;;;;;;;;;;;;;;5087612;28;19939;-74
2022/04/06 05:06:38;;;;;;;;;;;;;;;;;;5092197;28;19930;-74
2022/04/06 05:09:05;;;;;;;;;;;;;;;;;;5091139;28;20301;-74
2022/04/06 05:11:33;;;;;;;;;;;;;;;;;;5092506;28;19932;-74
2022/04/06 05:14:00;;;;;;;;;;;;;;;;;;5090216;28;20382;-74
2022/04/06 05:16:27;;;;;;;;;;;;;;;;;;5092803;28;19924;-74
2022/04/06 05:18:54;;;;;;;;;;;;;;;;;;5089851;28;19930;-74
2022/04/06 05:21:20;;;;;;;;;;;;;;;;;;5092845;28;19924;-76
2022/04/06 05:23:47;;;;;;;;;;;;;;;;;;5082796;28;19942;-76
2022/04/06 05:26:14;;;;;;;;;;;;;;;;;;5091319;28;20031;-77
2022/04/06 05:28:41;;;;;;;;;;;;;;;;;;5094692;28;19928;-78
2022/04/06 05:31:08;;;;;;;;;;;;;;;;;;5097194;28;19924;-79
2022/04/06 05:33:35;;;;;;;;;;;;;;;;;;5092532;28;20024;-80
2022/04/06 05:36:02;;;;;;;;;;;;;;;;;;5092114;28;19992;-80
2022/04/06 05:38:30;;;;;;;;;;;;;;;;;;5091803;28;19970;-78
2022/04/06 05:40:58;;;;;;;;;;;;;;;;;;5094534;28;20003;-77
2022/04/06 05:43:25;;;;;;;;;;;;;;;;;;5094073;28;19928;-77
2022/04/06 05:45:52;;;;;;;;;;;;;;;;;;5094139;28;19981;-78
2022/04/06 05:48:19;;;;;;;;;;;;;;;;;;5089472;28;20015;-77
2022/04/06 05:50:46;;;;;;;;;;;;;;;;;;5093994;28;19931;-77
2022/04/06 05:53:13;;;;;;;;;;;;;;;;;;5094728;28;19924;-79
2022/04/06 05:55:42;;;;;;;;;;;;;;;;;;5093751;28;19932;-78
2022/04/06 05:58:09;;;;;;;;;;;;;;;;;;5094216;28;19935;-77
2022/04/06 06:00:36;;;;;;;;;;;;;;;;;;5092652;28;19924;-78
2022/04/06 06:03:03;;;;;;;;;;;;;;;;;;5083601;28;19971;-78
2022/04/06 06:05:33;;;;;;;;;;;;;;;;;;5085516;28;19942;-78
2022/04/06 06:08:00;;;;;;;;;;;;;;;;;;5094589;28;20396;-77
2022/04/06 06:10:26;;;;;;;;;;;;;;;;;;5087014;28;20070;-77
2022/04/06 06:12:53;;;;;;;;;;;;;;;;;;5090525;28;20398;-75
2022/04/06 06:15:20;;;;;;;;;;;;;;;;;;5091861;28;19931;-76
2022/04/06 06:17:49;;;;;;;;;;;;;;;;;;5092161;28;19924;-76
2022/04/06 06:20:16;;;;;;;;;;;;;;;;;;5085723;28;20302;-76
2022/04/06 06:22:42;;;;;;;;;;;;;;;;;;5095168;28;19935;-79
2022/04/06 06:25:09;;;;;;;;;;;;;;;;;;5099857;28;19924;-77
2022/04/06 06:27:36;;;;;;;;;;;;;;;;;;5094872;28;19967;-77
2022/04/06 06:30:03;;;;;;;;;;;;;;;;;;5092451;28;20308;-77
2022/04/06 06:32:30;;;;;;;;;;;;;;;;;;5094851;28;20389;-76
2022/04/06 06:34:57;;;;;;;;;;;;;;;;;;5093317;28;19928;-77
2022/04/06 06:37:24;;;;;;;;;;;;;;;;;;5093338;28;20022;-77
2022/04/06 06:39:54;;;;;;;;;;;;;;;;;;5092759;28;20128;-77
2022/04/06 06:42:21;;;;;;;;;;;;;;;;;;5086224;28;19928;-76
2022/04/06 06:44:48;;;;;;;;;;;;;;;;;;5065192;28;19935;-80
2022/04/06 06:47:15;;;;;;;;;;;;;;;;;;5090884;28;19924;-79
2022/04/06 06:49:46;;;;;;;;;;;;;;;;;;5095494;28;20003;-79
2022/04/06 06:52:13;;;;;;;;;;;;;;;;;;5088218;28;19928;-78
2022/04/06 06:54:40;;;;;;;;;;;;;;;;;;5092174;28;19924;-78
2022/04/06 06:57:07;;;;;;;;;;;;;;;;;;5094050;28;19995;-77
2022/04/06 06:59:34;;;;;;;;;;;;;;;;;;5092326;28;19963;-78
2022/04/06 07:02:01;;;;;;;;;;;;;;;;;;5096454;28;20346;-77
2022/04/06 07:04:28;;;;;;;;;;;;;;;;;;5092144;28;20413;-77
2022/04/06 07:06:55;;;;;;;;;;;;;;;;;;5093321;28;20393;-77
2022/04/06 07:09:22;;;;;;;;;;;;;;;;;;5091649;28;19924;-78
2022/04/06 07:11:49;;;;;;;;;;;;;;;;;;5094614;28;19924;-77
2022/04/06 07:14:16;;;;;;;;;;;;;;;;;;5092207;28;19924;-77
2022/04/06 07:16:42;;;;;;;;;;;;;;;;;;5080142;28;19930;-77
2022/04/06 07:19:09;;;;;;;;;;;;;;;;;;5091599;28;19930;-77
2022/04/06 07:21:36;;;;;;;;;;;;;;;;;;5094354;28;20015;-77
2022/04/06 07:24:03;;;;;;;;;;;;;;;;;;5093109;28;19928;-77
2022/04/06 07:26:30;;;;;;;;;;;;;;;;;;5092448;28;19924;-77
2022/04/06 07:28:58;;;;;;;;;;;;;;;;;;5084620;28;19932;-77
2022/04/06 07:31:25;;;;;;;;;;;;;;;;;;5092459;28;20018;-77
2022/04/06 07:33:52;;;;;;;;;;;;;;;;;;5084751;28;20015;-77
2022/04/06 07:36:19;;;;;;;;;;;;;;;;;;5092138;28;20018;-76
2022/04/06 07:38:46;;;;;;;;;;;;;;;;;;5080877;28;19928;-75
2022/04/06 07:41:13;;;;;;;;;;;;;;;;;;5093845;28;19935;-77
2022/04/06 07:43:40;;;;;;;;;;;;;;;;;;5091517;28;20238;-77
2022/04/06 07:46:07;;;;;;;;;;;;;;;;;;5093887;28;20022;-78
2022/04/06 07:48:35;;;;;;;;;;;;;;;;;;5091846;28;19937;-77
2022/04/06 07:51:02;;;;;;;;;;;;;;;;;;5089327;28;20116;-77
2022/04/06 07:53:29;;;;;;;;;;;;;;;;;;5095046;28;19927;-76
2022/04/06 07:55:56;;;;;;;;;;;;;;;;;;5101999;28;20340;-78
2022/04/06 07:58:24;;;;;;;;;;;;;;;;;;5095644;28;19935;-77
2022/04/06 08:00:51;;;;;;;;;;;;;;;;;;5091330;28;19924;-79
2022/04/06 08:03:18;;;;;;;;;;;;;;;;;;5095248;28;19932;-77
2022/04/06 08:05:45;;;;;;;;;;;;;;;;;;5091588;28;19932;-77
2022/04/06 08:08:12;;;;;;;;;;;;;;;;;;5086436;28;19963;-78
2022/04/06 08:10:39;;;;;;;;;;;;;;;;;;5091725;28;19928;-76
2022/04/06 08:13:06;;;;;;;;;;;;;;;;;;5099479;28;20002;-77
2022/04/06 08:15:33;;;;;;;;;;;;;;;;;;5095158;28;20018;-78
2022/04/06 08:18:00;;;;;;;;;;;;;;;;;;5097650;28;19987;-78
2022/04/06 08:20:27;;;;;;;;;;;;;;;;;;5090897;28;20455;-77
2022/04/06 08:22:55;;;;;;;;;;;;;;;;;;5088875;28;20079;-77
2022/04/06 08:25:22;;;;;;;;;;;;;;;;;;5090656;28;19932;-77
2022/04/06 08:27:49;;;;;;;;;;;;;;;;;;5088883;28;19924;-77
2022/04/06 08:30:20;;;;;;;;;;;;;;;;;;5087486;28;19932;-77
2022/04/06 08:32:46;;;;;;;;;;;;;;;;;;5088708;28;19932;-77
2022/04/06 08:35:13;;;;;;;;;;;;;;;;;;5082602;28;20335;-78
2022/04/06 08:37:40;;;;;;;;;;;;;;;;;;5091958;28;19930;-78
2022/04/06 08:40:07;;;;;;;;;;;;;;;;;;5087577;28;19988;-77
2022/04/06 08:42:34;;;;;;;;;;;;;;;;;;5092437;28;19938;-77
2022/04/06 08:45:02;;;;;;;;;;;;;;;;;;5089673;28;19928;-78
2022/04/06 08:47:29;;;;;;;;;;;;;;;;;;5083377;28;19924;-78
2022/04/06 08:49:55;;;;;;;;;;;;;;;;;;5089366;28;20034;-75
2022/04/06 08:52:22;;;;;;;;;;;;;;;;;;5079552;28;19924;-74
2022/04/06 08:54:49;;;;;;;;;;;;;;;;;;5085562;28;19924;-74
2022/04/06 08:57:16;;;;;;;;;;;;;;;;;;5087497;28;19924;-75
2022/04/06 08:59:43;;;;;;;;;;;;;;;;;;5087146;28;19924;-75
2022/04/06 09:02:11;;;;;;;;;;;;;;;;;;5089000;28;19925;-74
2022/04/06 09:04:38;;;;;;;;;;;;;;;;;;5088577;28;19925;-76
2022/04/06 09:07:05;;;;;;;;;;;;;;;;;;5086888;28;19924;-76
2022/04/06 09:09:32;;;;;;;;;;;;;;;;;;5088280;28;19931;-78
2022/04/06 09:11:59;;;;;;;;;;;;;;;;;;5091530;28;19928;-78
2022/04/06 09:14:26;;;;;;;;;;;;;;;;;;5088578;28;19934;-78
2022/04/06 09:16:53;;;;;;;;;;;;;;;;;;5092104;28;20391;-78
2022/04/06 09:19:20;;;;;;;;;;;;;;;;;;5093032;28;19924;-74
2022/04/06 09:21:47;;;;;;;;;;;;;;;;;;5093631;28;19924;-78
2022/04/06 09:24:15;;;;;;;;;;;;;;;;;;5092797;28;19932;-77
2022/04/06 09:26:42;;;;;;;;;;;;;;;;;;5092293;28;20318;-78
2022/04/06 09:29:09;;;;;;;;;;;;;;;;;;5083688;28;19932;-77
2022/04/06 09:31:36;;;;;;;;;;;;;;;;;;5095359;28;20010;-78
2022/04/06 09:34:04;;;;;;;;;;;;;;;;;;5089586;28;19924;-77
2022/04/06 09:36:31;;;;;;;;;;;;;;;;;;5094426;28;19924;-78
2022/04/06 09:38:58;;;;;;;;;;;;;;;;;;5089049;28;19947;-77
2022/04/06 09:41:25;;;;;;;;;;;;;;;;;;5102909;28;19924;-77
2022/04/06 09:43:53;;;;;;;;;;;;;;;;;;5095003;28;19932;-77
2022/04/06 09:49:13;;;;;;;;;;;;;;;;;;5051042;28;19928;-78
2022/04/06 09:51:40;;;;;;;;;;;;;;;;;;5094422;28;19924;-77
2022/04/06 09:54:07;;;;;;;;;;;;;;;;;;5094439;28;20319;-78
2022/04/06 09:56:35;;;;;;;;;;;;;;;;;;5085008;28;20382;-76
2022/04/06 09:59:02;;;;;;;;;;;;;;;;;;5090062;28;19932;-78
2022/04/06 10:01:29;;;;;;;;;;;;;;;;;;5100453;28;20010;-77
2022/04/06 10:03:56;;;;;;;;;;;;;;;;;;5096494;28;19999;-77
2022/04/06 10:06:31;;;;;;;;;;;;;;;;;;5092491;28;20020;-77
2022/04/06 10:08:58;;;;;;;;;;;;;;;;;;5084860;28;19924;-76
2022/04/06 10:11:25;;;;;;;;;;;;;;;;;;5090859;28;19924;-76
2022/04/06 10:13:52;;;;;;;;;;;;;;;;;;5087961;28;19924;-77
2022/04/06 10:16:20;;;;;;;;;;;;;;;;;;5088825;28;20044;-77
2022/04/06 10:18:47;;;;;;;;;;;;;;;;;;5085112;28;19932;-77
2022/04/06 10:21:14;;;;;;;;;;;;;;;;;;5090157;28;19931;-77
2022/04/06 10:23:41;;;;;;;;;;;;;;;;;;5094947;28;19930;-76
2022/04/06 10:26:08;;;;;;;;;;;;;;;;;;5088029;28;20030;-77
2022/04/06 10:28:35;;;;;;;;;;;;;;;;;;5094247;28;19930;-77
2022/04/06 10:31:03;;;;;;;;;;;;;;;;;;5087786;28;19996;-79
2022/04/06 10:33:30;;;;;;;;;;;;;;;;;;5084331;28;19924;-77
2022/04/06 10:35:57;;;;;;;;;;;;;;;;;;5085553;28;19986;-78
2022/04/06 10:38:24;;;;;;;;;;;;;;;;;;5086301;28;19924;-77
2022/04/06 10:40:51;;;;;;;;;;;;;;;;;;5088482;28;19975;-76
2022/04/06 10:43:18;;;;;;;;;;;;;;;;;;5084823;28;19925;-77
2022/04/06 10:45:45;;;;;;;;;;;;;;;;;;5082909;28;19935;-78
2022/04/06 10:48:12;;;;;;;;;;;;;;;;;;5089108;28;19928;-78
2022/04/06 10:50:39;;;;;;;;;;;;;;;;;;5086741;28;19928;-77
2022/04/06 10:53:06;;;;;;;;;;;;;;;;;;5088166;28;20398;-77
2022/04/06 10:55:34;;;;;;;;;;;;;;;;;;5087473;28;19928;-78
2022/04/06 10:58:01;;;;;;;;;;;;;;;;;;5082964;28;20311;-77
2022/04/06 11:00:28;;;;;;;;;;;;;;;;;;5088272;28;20810;-77
2022/04/06 11:02:55;;;;;;;;;;;;;;;;;;5086967;28;20331;-77
2022/04/06 11:05:22;;;;;;;;;;;;;;;;;;5087887;28;19928;-77
2022/04/06 11:10:34;;;;;;;;;;;;;;;;;;5086766;28;20013;-78
2022/04/06 11:13:01;;;;;;;;;;;;;;;;;;5083510;28;19924;-77
2022/04/06 11:15:28;;;;;;;;;;;;;;;;;;5081298;28;19985;-76
2022/04/06 11:17:55;;;;;;;;;;;;;;;;;;5083098;28;19942;-75
2022/04/06 11:20:22;;;;;;;;;;;;;;;;;;5081745;28;20398;-76
2022/04/06 11:22:49;;;;;;;;;;;;;;;;;;5085861;28;19981;-78
2022/04/06 11:25:16;;;;;;;;;;;;;;;;;;5086065;28;19975;-78
2022/04/06 11:27:43;;;;;;;;;;;;;;;;;;5090073;28;19924;-76
2022/04/06 11:30:12;;;;;;;;;;;;;;;;;;5088461;28;19931;-76
2022/04/06 11:32:39;;;;;;;;;;;;;;;;;;5090124;28;19931;-76
2022/04/06 11:35:06;;;;;;;;;;;;;;;;;;5091782;28;20389;-76
2022/04/06 11:37:33;;;;;;;;;;;;;;;;;;5089107;28;20474;-77
2022/04/06 11:40:06;;;;;;;;;;;;;;;;;;5089541;28;19924;-76
2022/04/06 11:42:33;;;;;;;;;;;;;;;;;;5086150;28;20003;-77
2022/04/06 11:45:00;;;;;;;;;;;;;;;;;;5088541;28;19932;-77
2022/04/06 11:47:27;;;;;;;;;;;;;;;;;;5089167;28;19931;-76
2022/04/06 11:49:54;;;;;;;;;;;;;;;;;;5088328;28;20634;-77
2022/04/06 11:52:21;;;;;;;;;;;;;;;;;;5096401;28;19924;-78
2022/04/06 11:54:48;;;;;;;;;;;;;;;;;;5092073;28;20330;-78
2022/04/06 11:57:15;;;;;;;;;;;;;;;;;;5089637;28;19936;-77
2022/04/06 11:59:42;;;;;;;;;;;;;;;;;;5084797;28;20382;-77
2022/04/06 12:02:09;;;;;;;;;;;;;;;;;;5085344;28;20382;-78
2022/04/06 12:04:40;;;;;;;;;;;;;;;;;;5088792;28;19978;-77
2022/04/06 12:07:07;;;;;;;;;;;;;;;;;;5090576;28;19970;-78
2022/04/06 12:09:38;;;;;;;;;;;;;;;;;;5079795;28;20373;-78
2022/04/06 12:12:05;;;;;;;;;;;;;;;;;;5094167;28;20010;-78
2022/04/06 12:14:32;;;;;;;;;;;;;;;;;;5087258;28;19930;-76
2022/04/06 12:16:59;;;;;;;;;;;;;;;;;;5090942;28;19924;-77
2022/04/06 12:19:26;;;;;;;;;;;;;;;;;;5088816;28;19924;-78
2022/04/06 12:21:53;;;;;;;;;;;;;;;;;;5090465;28;19969;-79
2022/04/06 12:24:20;;;;;;;;;;;;;;;;;;5087171;28;19925;-77
2022/04/06 12:26:51;;;;;;;;;;;;;;;;;;5086116;28;20721;-77
2022/04/06 12:29:21;;;;;;;;;;;;;;;;;;5093138;28;19924;-77
2022/04/06 12:31:48;;;;;;;;;;;;;;;;;;5090808;28;19959;-79
2022/04/06 12:34:15;;;;;;;;;;;;;;;;;;5092258;28;20003;-77
2022/04/06 12:36:42;;;;;;;;;;;;;;;;;;5094868;28;19970;-79
2022/04/06 12:39:10;;;;;;;;;;;;;;;;;;5090279;28;20023;-77
2022/04/06 12:41:37;;;;;;;;;;;;;;;;;;5088970;28;20011;-76
2022/04/06 12:44:04;;;;;;;;;;;;;;;;;;5088169;28;19947;-77
2022/04/06 12:46:31;;;;;;;;;;;;;;;;;;5087178;28;19928;-78
2022/04/06 12:48:58;;;;;;;;;;;;;;;;;;5095495;28;20019;-77
2022/04/06 12:51:25;;;;;;;;;;;;;;;;;;5092828;28;19928;-75
2022/04/06 12:53:53;;;;;;;;;;;;;;;;;;5092941;28;19928;-77
2022/04/06 12:56:23;;;;;;;;;;;;;;;;;;5091854;28;19947;-77
2022/04/06 12:58:50;;;;;;;;;;;;;;;;;;5094307;28;19928;-77
2022/04/06 13:01:17;;;;;;;;;;;;;;;;;;5095498;28;20010;-79
2022/04/06 13:03:43;;;;;;;;;;;;;;;;;;5095643;28;19931;-79
2022/04/06 13:06:10;;;;;;;;;;;;;;;;;;5090355;28;19975;-77
2022/04/06 13:08:37;;;;;;;;;;;;;;;;;;5088582;28;19928;-79
2022/04/06 13:11:04;;;;;;;;;;;;;;;;;;5092585;28;19924;-77
2022/04/06 13:13:31;;;;;;;;;;;;;;;;;;5098111;28;20050;-78
2022/04/06 13:15:58;;;;;;;;;;;;;;;;;;5094522;28;19959;-79
2022/04/06 13:18:25;;;;;;;;;;;;;;;;;;5094215;28;19932;-79
2022/04/06 13:20:52;;;;;;;;;;;;;;;;;;5096671;28;19924;-78
2022/04/06 13:23:19;;;;;;;;;;;;;;;;;;5096246;28;20325;-78
2022/04/06 13:25:46;;;;;;;;;;;;;;;;;;5095086;28;19924;-79
2022/04/06 13:28:14;;;;;;;;;;;;;;;;;;5098536;28;19932;-79
2022/04/06 13:30:41;;;;;;;;;;;;;;;;;;5092852;28;19930;-76
2022/04/06 13:33:08;;;;;;;;;;;;;;;;;;5090469;28;20015;-79
2022/04/06 13:35:35;;;;;;;;;;;;;;;;;;5102565;28;20318;-79
2022/04/06 13:38:02;;;;;;;;;;;;;;;;;;5097209;28;20015;-79
2022/04/06 13:40:30;;;;;;;;;;;;;;;;;;5100833;28;19912;-79
2022/04/06 13:42:57;;;;;;;;;;;;;;;;;;5113950;28;19912;-81
2022/04/06 13:45:24;;;;;;;;;;;;;;;;;;5119284;28;19943;-79
2022/04/06 13:47:51;;;;;;;;;;;;;;;;;;5102827;28;19970;-80
2022/04/06 13:50:19;;;;;;;;;;;;;;;;;;5090308;28;19928;-76
2022/04/06 13:52:46;;;;;;;;;;;;;;;;;;5089330;28;19928;-77
2022/04/06 13:55:17;;;;;;;;;;;;;;;;;;5087077;28;20370;-77
2022/04/06 13:57:44;;;;;;;;;;;;;;;;;;5089226;28;19938;-77
2022/04/06 14:00:11;;;;;;;;;;;;;;;;;;5083366;28;19939;-77
2022/04/06 14:02:38;;;;;;;;;;;;;;;;;;5089303;28;19954;-76
2022/04/06 14:05:05;;;;;;;;;;;;;;;;;;5087565;28;19924;-78
2022/04/06 14:07:32;;;;;;;;;;;;;;;;;;5084323;28;20418;-77
2022/04/06 14:09:59;;;;;;;;;;;;;;;;;;5081242;28;20414;-77
2022/04/06 14:12:26;;;;;;;;;;;;;;;;;;5085353;28;19924;-77
2022/04/06 14:14:53;;;;;;;;;;;;;;;;;;5085098;28;20276;-76
2022/04/06 14:17:20;;;;;;;;;;;;;;;;;;5091350;28;20417;-77
2022/04/06 14:19:47;;;;;;;;;;;;;;;;;;5086147;28;19967;-75
2022/04/06 14:22:14;;;;;;;;;;;;;;;;;;5084922;28;22067;-76
2022/04/06 14:25:15;;;;;;;;;;;;;;;;;;5086969;28;20329;-76
2022/04/06 14:27:28;;;;;;;;;;;;;;;;;;5089962;28;19938;-76
2022/04/06 14:29:56;;;;;;;;;;;;;;;;;;5082064;28;20019;-75
2022/04/06 14:32:23;;;;;;;;;;;;;;;;;;5091071;28;19939;-76
2022/04/06 14:34:50;;;;;;;;;;;;;;;;;;5087122;28;19928;-76
2022/04/06 14:37:18;;;;;;;;;;;;;;;;;;5086983;28;19938;-76
2022/04/06 14:39:45;;;;;;;;;;;;;;;;;;5083453;28;19924;-77
2022/04/06 14:42:12;;;;;;;;;;;;;;;;;;5086250;28;19934;-77
2022/04/06 14:44:39;;;;;;;;;;;;;;;;;;5084758;28;19970;-77
2022/04/06 14:47:06;;;;;;;;;;;;;;;;;;5085884;28;20539;-76
2022/04/06 14:49:33;;;;;;;;;;;;;;;;;;5081756;28;19924;-76
2022/04/06 14:52:00;;;;;;;;;;;;;;;;;;5080333;28;19924;-76
2022/04/06 14:54:27;;;;;;;;;;;;;;;;;;5083538;28;20020;-79
2022/04/06 14:56:54;;;;;;;;;;;;;;;;;;5089437;28;20007;-77
2022/04/06 14:59:21;;;;;;;;;;;;;;;;;;5085308;28;20027;-75
2022/04/06 15:01:48;;;;;;;;;;;;;;;;;;5093703;28;20181;-75
2022/04/06 15:04:15;;;;;;;;;;;;;;;;;;5086305;28;19954;-75
2022/04/06 15:06:42;;;;;;;;;;;;;;;;;;5090694;28;19932;-76
2022/04/06 15:09:09;;;;;;;;;;;;;;;;;;5080634;28;19924;-75
2022/04/06 15:11:36;;;;;;;;;;;;;;;;;;5084885;28;19992;-75
2022/04/06 15:14:03;;;;;;;;;;;;;;;;;;5085926;28;19924;-76
2022/04/06 15:16:30;;;;;;;;;;;;;;;;;;5090736;28;19924;-77
2022/04/06 15:18:57;;;;;;;;;;;;;;;;;;5091721;28;19924;-75
2022/04/06 15:21:24;;;;;;;;;;;;;;;;;;5088897;28;19927;-76
2022/04/06 15:23:51;;;;;;;;;;;;;;;;;;5088565;28;19939;-76
2022/04/06 15:26:18;;;;;;;;;;;;;;;;;;5093314;28;20115;-76
2022/04/06 15:28:46;;;;;;;;;;;;;;;;;;5093346;28;19931;-76
2022/04/06 15:31:13;;;;;;;;;;;;;;;;;;5088994;28;19955;-76
2022/04/06 15:33:40;;;;;;;;;;;;;;;;;;5090651;28;19924;-76
2022/04/06 15:38:53;;;;;;;;;;;;;;;;;;5090442;28;19919;-76
2022/04/06 15:41:21;;;;;;;;;;;;;;;;;;5088668;28;19989;-76
2022/04/06 15:43:48;;;;;;;;;;;;;;;;;;5089236;28;20379;-76
2022/04/06 15:46:15;;;;;;;;;;;;;;;;;;5087983;28;20677;-75
2022/04/06 15:48:43;;;;;;;;;;;;;;;;;;5087080;28;20423;-76
2022/04/06 15:51:10;;;;;;;;;;;;;;;;;;5086055;28;19932;-76
2022/04/06 15:53:37;;;;;;;;;;;;;;;;;;5082542;28;20313;-76
2022/04/06 15:56:04;;;;;;;;;;;;;;;;;;5085477;28;19924;-77
2022/04/06 15:58:33;;;;;;;;;;;;;;;;;;5089514;28;19931;-75
2022/04/06 16:01:00;;;;;;;;;;;;;;;;;;5091850;28;19924;-75
2022/04/06 16:03:27;;;;;;;;;;;;;;;;;;5087053;28;19931;-75
2022/04/06 16:05:54;;;;;;;;;;;;;;;;;;5083567;28;19932;-76
2022/04/06 16:08:21;;;;;;;;;;;;;;;;;;5084329;28;19932;-75
2022/04/06 16:10:49;;;;;;;;;;;;;;;;;;5090743;28;19982;-75
2022/04/06 16:13:16;;;;;;;;;;;;;;;;;;5089406;28;19981;-74
2022/04/06 16:15:44;;;;;;;;;;;;;;;;;;5089781;28;19935;-76
2022/04/06 16:18:11;;;;;;;;;;;;;;;;;;5088287;28;19928;-76
2022/04/06 16:20:38;;;;;;;;;;;;;;;;;;5089809;28;19924;-75
2022/04/06 16:23:05;;;;;;;;;;;;;;;;;;5088984;28;19924;-77
2022/04/06 16:25:33;;;;;;;;;;;;;;;;;;5087161;28;19928;-77
2022/04/06 16:28:00;;;;;;;;;;;;;;;;;;5088033;28;19931;-78
2022/04/06 16:30:27;;;;;;;;;;;;;;;;;;5086840;28;20645;-77
2022/04/06 16:32:54;;;;;;;;;;;;;;;;;;5090184;28;19942;-77
2022/04/06 16:35:21;;;;;;;;;;;;;;;;;;5087227;28;19930;-77
2022/04/06 16:37:49;;;;;;;;;;;;;;;;;;5090350;28;19932;-77
2022/04/06 16:40:16;;;;;;;;;;;;;;;;;;5089147;28;19924;-77
2022/04/06 16:42:43;;;;;;;;;;;;;;;;;;5090068;28;20378;-77
2022/04/06 16:45:11;;;;;;;;;;;;;;;;;;5089858;28;20247;-77
2022/04/06 16:47:38;;;;;;;;;;;;;;;;;;5084385;28;20303;-77
2022/04/06 16:52:51;;;;;;;;;;;;;;;;;;5086735;28;19918;-76
2022/04/06 16:55:18;;;;;;;;;;;;;;;;;;5087133;28;19932;-77
2022/04/06 16:57:45;;;;;;;;;;;;;;;;;;5094549;28;19924;-79
2022/04/06 17:00:15;;;;;;;;;;;;;;;;;;5091300;28;19924;-77